Pakpattan Weather



Pakpattan's Current Weather

Temprature 12.16o clear sky

clear sky

Rain: 0 %

Min Temprature12.16o
Max Temprature12.16o
Humidity75
Wind Speed2.78 m/h
Sun Rise06:54:39
Sun Set17:07:10
Current Time: 14-Dec-2019 08:14:32
Lat/Lon: 30.34, 73.39




Pakpattan's Geo Location



Pakpattan's Weather Forecast

Time Overall Temp Min Temp Max Temp Humidity Wind Speed Rain
14-Dec-2019 (Sat)
11:00:00 clear sky 17.450 17.450 17.450 53 3.05 m/h 0 %
14:00:00 scattered clouds 18.950 18.950 18.950 44 1.86 m/h 0 %
17:00:00 broken clouds 16.500 16.500 16.500 52 0.89 m/h 0 %
20:00:00 overcast clouds 14.870 14.870 14.870 58 1.63 m/h 0 %
23:00:00 overcast clouds 13.960 13.960 13.960 62 1.81 m/h 0 %
15-Dec-2019 (Sun)
02:00:00 clear sky 12.650 12.650 12.650 67 1.41 m/h 0 %
05:00:00 clear sky 11.830 11.830 11.830 70 1.65 m/h 0 %
08:00:00 clear sky 12.520 12.520 12.520 69 1.26 m/h 0 %
11:00:00 clear sky 17.610 17.610 17.610 49 2.26 m/h 0 %
14:00:00 clear sky 19.870 19.870 19.870 37 3.62 m/h 0 %
17:00:00 clear sky 16.750 16.750 16.750 45 2.41 m/h 0 %
20:00:00 clear sky 14.580 14.580 14.580 51 0.86 m/h 0 %
23:00:00 clear sky 13.330 13.330 13.330 55 1.83 m/h 0 %
16-Dec-2019 (Mon)
02:00:00 clear sky 12.130 12.130 12.130 57 1.65 m/h 0 %
05:00:00 clear sky 11.200 11.200 11.200 59 1.37 m/h 0 %
08:00:00 clear sky 11.840 11.840 11.840 60 1.73 m/h 0 %
11:00:00 clear sky 17.670 17.670 17.670 42 2.51 m/h 0 %
14:00:00 clear sky 19.960 19.960 19.960 30 3.14 m/h 0 %
17:00:00 clear sky 16.710 16.710 16.710 38 2.36 m/h 0 %
20:00:00 clear sky 14.280 14.280 14.280 41 1.04 m/h 0 %
23:00:00 clear sky 12.840 12.840 12.840 44 1.7 m/h 0 %
17-Dec-2019 (Tue)
02:00:00 clear sky 11.480 11.480 11.480 46 1.97 m/h 0 %
05:00:00 scattered clouds 10.820 10.820 10.820 47 2.11 m/h 0 %
08:00:00 broken clouds 11.450 11.450 11.450 42 2.1 m/h 0 %
11:00:00 broken clouds 18.180 18.180 18.180 24 3.65 m/h 0 %
14:00:00 broken clouds 20.710 20.710 20.710 19 3.67 m/h 0 %
17:00:00 scattered clouds 16.540 16.540 16.540 27 1.89 m/h 0 %
20:00:00 clear sky 13.910 13.910 13.910 31 1.51 m/h 0 %
23:00:00 clear sky 12.780 12.780 12.780 33 0.55 m/h 0 %
18-Dec-2019 (Wed)
02:00:00 clear sky 11.440 11.440 11.440 36 1.34 m/h 0 %
05:00:00 clear sky 10.490 10.490 10.490 36 1.53 m/h 0 %
08:00:00 clear sky 11.320 11.320 11.320 30 1.42 m/h 0 %
11:00:00 few clouds 17.980 17.980 17.980 17 1.88 m/h 0 %
14:00:00 clear sky 21.160 21.160 21.160 14 2.9 m/h 0 %
17:00:00 few clouds 16.790 16.790 16.790 19 1.08 m/h 0 %
20:00:00 clear sky 14.660 14.660 14.660 21 0.86 m/h 0 %
23:00:00 clear sky 13.470 13.470 13.470 23 0.82 m/h 0 %
19-Dec-2019 (Thu)
02:00:00 clear sky 12.430 12.430 12.430 24 1.58 m/h 0 %
05:00:00 clear sky 11.230 11.230 11.230 28 0.96 m/h 0 %
08:00:00 overcast clouds 12.530 12.530 12.530 30 0.8 m/h 0 %

Famous Cities (61)